createdAt,value
2018-11-13T00:00:16.816Z,8.63
2018-11-13T00:02:45.298Z,7.57
2018-11-13T00:05:14.574Z,7.57
2018-11-13T00:07:43.724Z,8.20
2018-11-13T00:10:12.821Z,8.40
2018-11-13T00:12:42.017Z,8.40
2018-11-13T00:15:12.197Z,8.00
2018-11-13T00:17:40.894Z,8.23
2018-11-13T00:20:13.135Z,8.70
2018-11-13T00:22:42.287Z,8.07
2018-11-13T00:25:12.462Z,8.10
2018-11-13T00:27:42.275Z,7.47
2018-11-13T00:30:14.004Z,8.70
2018-11-13T00:32:44.447Z,8.13
2018-11-13T00:35:13.632Z,8.17
2018-11-13T00:37:42.727Z,8.20
2018-11-13T00:40:12.209Z,7.90
2018-11-13T00:42:41.578Z,8.73
2018-11-13T00:45:10.515Z,8.03
2018-11-13T00:47:42.664Z,8.20
2018-11-13T00:50:14.901Z,8.17
2018-11-13T00:52:44.304Z,8.53
2018-11-13T00:55:13.216Z,8.80
2018-11-13T00:57:42.540Z,9.37
2018-11-13T01:00:12.978Z,8.37
2018-11-13T01:02:41.500Z,9.47
2018-11-13T01:05:12.569Z,9.47
2018-11-13T01:07:41.837Z,8.63
2018-11-13T01:10:11.657Z,9.40
2018-11-13T01:12:40.579Z,10.10
2018-11-13T01:15:11.209Z,9.27
2018-11-13T01:17:39.661Z,10.13
2018-11-13T01:20:08.162Z,9.77
2018-11-13T01:22:37.164Z,8.83
2018-11-13T01:25:08.458Z,10.40
2018-11-13T01:27:37.128Z,10.90
2018-11-13T01:30:07.497Z,10.67
2018-11-13T01:32:38.587Z,11.10
2018-11-13T01:35:08.650Z,11.03
2018-11-13T01:37:37.108Z,11.43
2018-11-13T01:40:08.272Z,10.60
2018-11-13T01:42:36.868Z,10.97
2018-11-13T01:45:07.039Z,11.33
2018-11-13T01:47:35.614Z,12.17
2018-11-13T01:50:04.187Z,12.20
2018-11-13T01:52:32.764Z,11.90
2018-11-13T01:55:01.098Z,12.13
2018-11-13T01:57:29.707Z,12.80
2018-11-13T01:59:58.228Z,12.23
2018-11-13T02:02:27.657Z,13.43
2018-11-13T02:04:56.272Z,13.47
2018-11-13T02:07:24.883Z,12.80
2018-11-13T02:09:53.512Z,14.23
2018-11-13T02:12:22.050Z,13.13
2018-11-13T02:14:50.474Z,14.17
2018-11-13T02:17:18.838Z,14.63
2018-11-13T02:19:47.417Z,14.17
2018-11-13T02:22:16.264Z,14.80
2018-11-13T02:24:44.849Z,14.70
2018-11-13T02:27:14.264Z,15.37
2018-11-13T02:29:42.963Z,15.13
2018-11-13T02:32:11.435Z,14.63
2018-11-13T02:34:39.990Z,14.20
2018-11-13T02:37:08.467Z,15.83
2018-11-13T02:39:36.946Z,16.23
2018-11-13T02:42:06.489Z,15.83
2018-11-13T02:44:34.957Z,15.77
2018-11-13T02:47:03.640Z,15.17
2018-11-13T02:49:32.285Z,15.37
2018-11-13T02:52:00.746Z,15.50
2018-11-13T02:54:29.320Z,15.80
2018-11-13T02:56:57.909Z,16.20
2018-11-13T02:59:26.373Z,16.87
2018-11-13T03:01:54.737Z,17.57
2018-11-13T03:04:23.624Z,17.03
2018-11-13T03:06:52.037Z,16.93
2018-11-13T03:09:20.662Z,16.27
2018-11-13T03:11:49.309Z,16.97
2018-11-13T03:14:17.790Z,16.17
2018-11-13T03:16:46.267Z,18.37
2018-11-13T03:19:15.125Z,17.07
2018-11-13T03:21:44.299Z,17.70
2018-11-13T03:24:12.819Z,17.37
2018-11-13T03:26:41.833Z,17.67
2018-11-13T03:29:10.311Z,18.27
2018-11-13T03:31:38.936Z,17.93
2018-11-13T03:34:07.465Z,18.03
2018-11-13T03:36:36.156Z,18.17
2018-11-13T03:39:07.140Z,18.97
2018-11-13T03:41:35.704Z,18.70
2018-11-13T03:44:04.585Z,17.77
2018-11-13T03:46:33.420Z,18.30
2018-11-13T03:49:04.205Z,18.67
2018-11-13T03:51:32.792Z,18.00
2018-11-13T03:54:01.181Z,18.83
2018-11-13T03:56:29.641Z,18.23
2018-11-13T03:58:58.263Z,18.00
2018-11-13T04:01:26.578Z,17.93
2018-11-13T04:03:55.643Z,19.27
2018-11-13T04:06:24.064Z,18.47
2018-11-13T04:08:52.686Z,18.23
2018-11-13T04:11:21.340Z,18.23
2018-11-13T04:13:49.700Z,18.17
2018-11-13T04:16:18.362Z,18.63
2018-11-13T04:18:46.933Z,17.77
2018-11-13T04:21:15.288Z,18.40
2018-11-13T04:23:44.047Z,19.07
2018-11-13T04:26:12.484Z,18.10
2018-11-13T04:28:41.141Z,18.50
2018-11-13T04:31:09.786Z,19.03
2018-11-13T04:33:38.147Z,17.90
2018-11-13T04:36:06.585Z,17.23
2018-11-13T04:38:36.144Z,17.47
2018-11-13T04:41:05.713Z,17.30
2018-11-13T04:43:34.348Z,17.17
2018-11-13T04:46:03.245Z,17.63
2018-11-13T04:48:31.796Z,16.53
2018-11-13T04:51:00.280Z,17.27
2018-11-13T04:56:08.678Z,17.63
2018-11-13T04:58:37.704Z,17.00
2018-11-13T05:01:07.077Z,16.40
2018-11-13T05:03:35.412Z,15.93
2018-11-13T05:06:04.175Z,16.80
2018-11-13T05:08:33.056Z,16.03
2018-11-13T05:11:01.936Z,14.93
2018-11-13T05:13:31.738Z,15.17
2018-11-13T05:16:00.528Z,14.57
2018-11-13T05:18:28.915Z,15.63
2018-11-13T05:20:57.297Z,15.77
2018-11-13T05:23:25.717Z,13.80
2018-11-13T05:25:54.101Z,14.80
2018-11-13T05:28:22.721Z,14.43
2018-11-13T05:30:51.204Z,14.80
2018-11-13T05:33:19.891Z,13.70
2018-11-13T05:35:48.564Z,15.33
2018-11-13T05:38:17.308Z,14.83
2018-11-13T05:40:49.332Z,13.93
2018-11-13T05:43:18.335Z,13.33
2018-11-13T05:45:47.052Z,14.27
2018-11-13T05:48:16.433Z,14.13
2018-11-13T05:50:45.816Z,13.90
2018-11-13T05:53:15.181Z,13.83
2018-11-13T05:55:44.537Z,13.87
2018-11-13T06:03:59.931Z,14.50
2018-11-13T06:06:28.462Z,13.83
2018-11-13T06:08:56.830Z,14.00
2018-11-13T06:11:25.315Z,13.90
2018-11-13T06:13:54.021Z,15.07
2018-11-13T06:16:22.700Z,14.17
2018-11-13T06:18:51.245Z,13.83
2018-11-13T06:21:21.631Z,14.03
2018-11-13T06:23:50.449Z,13.13
2018-11-13T06:26:20.871Z,14.67
2018-11-13T06:28:50.452Z,14.07
2018-11-13T06:31:20.970Z,13.77
2018-11-13T06:33:49.497Z,13.53
2018-11-13T06:36:17.947Z,13.50
2018-11-13T06:38:46.524Z,13.00
2018-11-13T06:41:15.164Z,14.00
2018-11-13T06:43:45.259Z,13.23
2018-11-13T06:46:13.609Z,13.60
2018-11-13T06:48:44.417Z,14.77
2018-11-13T06:51:13.004Z,13.83
2018-11-13T06:53:52.830Z,13.83
2018-11-13T06:56:21.480Z,13.17
2018-11-13T06:58:50.189Z,13.80
2018-11-13T07:01:19.337Z,12.60
2018-11-13T07:03:51.037Z,14.03
2018-11-13T07:06:20.759Z,12.43
2018-11-13T07:08:51.256Z,12.73
2018-11-13T07:11:20.180Z,11.83
2018-11-13T07:13:48.661Z,12.20
2018-11-13T07:16:17.417Z,11.90
2018-11-13T07:18:46.187Z,10.47
2018-11-13T07:21:15.184Z,11.50
2018-11-13T07:23:43.916Z,11.13
2018-11-13T07:26:13.773Z,10.83
2018-11-13T07:28:42.336Z,10.00
2018-11-13T07:31:11.018Z,9.47
2018-11-13T07:33:39.303Z,8.87
2018-11-13T07:36:08.292Z,8.97
2018-11-13T07:38:36.622Z,7.63
2018-11-13T07:41:05.481Z,6.90
2018-11-13T07:43:34.283Z,7.47
2018-11-13T07:46:02.621Z,6.63
2018-11-13T07:48:32.385Z,5.37
2018-11-13T07:51:01.825Z,4.10
2018-11-13T07:53:30.357Z,3.80
2018-11-13T07:56:01.537Z,3.60
2018-11-13T07:58:30.591Z,3.73
2018-11-13T08:01:01.085Z,2.43
2018-11-13T08:03:34.433Z,2.50
2018-11-13T08:06:04.863Z,2.10
2018-11-13T08:08:36.292Z,2.27
2018-11-13T08:11:27.005Z,2.00
2018-11-13T08:14:07.881Z,1.73
2018-11-13T08:16:37.839Z,1.27
2018-11-13T08:19:07.568Z,1.00
2018-11-13T08:21:37.385Z,0.90
2018-11-13T08:24:05.988Z,1.27
2018-11-13T08:26:34.757Z,1.13
2018-11-13T08:29:03.424Z,1.07
2018-11-13T08:31:31.972Z,1.10
2018-11-13T08:34:00.984Z,1.30
2018-11-13T08:36:29.350Z,0.93
2018-11-13T08:38:57.788Z,0.90
2018-11-13T08:41:26.842Z,1.10
2018-11-13T08:43:55.372Z,1.47
2018-11-13T08:46:23.822Z,1.47
2018-11-13T08:48:52.211Z,1.60
2018-11-13T08:51:20.539Z,1.13
2018-11-13T08:53:48.865Z,0.80
2018-11-13T08:56:17.781Z,1.20
2018-11-13T08:58:47.007Z,1.13
2018-11-13T09:01:15.551Z,1.53
2018-11-13T09:03:44.912Z,1.97
2018-11-13T09:06:13.449Z,1.53
2018-11-13T09:08:42.233Z,1.83
2018-11-13T09:11:10.873Z,1.50
2018-11-13T09:13:39.471Z,1.40
2018-11-13T09:16:08.189Z,2.07
2018-11-13T09:18:36.622Z,1.20
2018-11-13T09:21:05.628Z,1.60
2018-11-13T09:23:33.966Z,1.10
2018-11-13T09:26:02.350Z,1.50
2018-11-13T09:28:30.892Z,1.67
2018-11-13T09:30:59.474Z,1.97
2018-11-13T09:33:27.867Z,1.30
2018-11-13T09:35:56.593Z,1.30
2018-11-13T09:38:25.358Z,1.50
2018-11-13T09:40:53.872Z,1.27
2018-11-13T09:43:22.508Z,1.60
2018-11-13T09:45:50.964Z,1.20
2018-11-13T09:48:19.474Z,1.10
2018-11-13T09:50:48.960Z,1.13
2018-11-13T09:53:20.505Z,2.10
2018-11-13T09:55:53.804Z,1.60
2018-11-13T09:58:22.842Z,1.50
2018-11-13T10:00:51.517Z,1.30
2018-11-13T10:03:20.523Z,1.33
2018-11-13T10:05:48.665Z,1.07
2018-11-13T10:08:17.075Z,1.40
2018-11-13T10:10:46.093Z,1.27
2018-11-13T10:13:14.490Z,1.70
2018-11-13T10:15:43.233Z,1.20
2018-11-13T10:18:11.934Z,1.70
2018-11-13T10:20:40.568Z,1.63
2018-11-13T10:23:09.560Z,1.40
2018-11-13T10:25:38.056Z,1.20
2018-11-13T10:28:06.700Z,2.00
2018-11-13T10:30:35.558Z,1.13
2018-11-13T10:33:04.078Z,1.80
2018-11-13T10:35:32.992Z,1.70
2018-11-13T10:38:01.599Z,1.40
2018-11-13T10:40:30.225Z,1.63
2018-11-13T10:42:58.461Z,1.60
2018-11-13T10:45:28.336Z,1.97
2018-11-13T10:47:57.279Z,1.63
2018-11-13T10:50:26.565Z,2.03
2018-11-13T10:52:55.740Z,1.77
2018-11-13T10:55:24.102Z,1.70
2018-11-13T10:57:52.512Z,2.23
2018-11-13T11:00:26.273Z,1.50
2018-11-13T11:03:58.295Z,1.73
2018-11-13T11:06:26.940Z,1.83
2018-11-13T11:08:55.404Z,1.50
2018-11-13T11:11:24.749Z,2.30
2018-11-13T11:13:53.282Z,1.60
2018-11-13T11:16:22.466Z,1.93
2018-11-13T11:18:51.149Z,1.95
2018-11-13T11:21:19.381Z,1.50
2018-11-13T11:23:48.008Z,1.65
2018-11-13T11:26:16.730Z,1.57
2018-11-13T11:28:45.035Z,1.73
2018-11-13T11:31:13.560Z,2.43
2018-11-13T11:33:42.141Z,2.17
2018-11-13T11:36:10.452Z,1.87
2018-11-13T11:38:38.908Z,2.47
2018-11-13T11:41:07.790Z,2.17
2018-11-13T11:43:36.555Z,2.67
2018-11-13T11:46:04.910Z,2.57
2018-11-13T11:48:33.205Z,1.97
2018-11-13T11:51:01.569Z,1.97
2018-11-13T11:53:29.854Z,2.67
2018-11-13T11:55:58.276Z,1.97
2018-11-13T11:58:26.562Z,2.00
2018-11-13T12:00:54.888Z,2.37
2018-11-13T12:03:23.274Z,1.93
2018-11-13T12:05:51.553Z,2.43
2018-11-13T12:08:19.869Z,1.97
2018-11-13T12:10:48.161Z,2.10
2018-11-13T12:13:16.469Z,3.00
2018-11-13T12:15:44.750Z,2.47
2018-11-13T12:18:13.033Z,2.50
2018-11-13T12:20:41.364Z,2.30
2018-11-13T12:23:09.746Z,2.93
2018-11-13T12:25:38.049Z,1.73
2018-11-13T12:28:06.871Z,2.47
2018-11-13T12:30:35.189Z,2.00
2018-11-13T12:33:03.481Z,2.67
2018-11-13T12:35:31.835Z,2.30
2018-11-13T12:38:00.126Z,3.13
2018-11-13T12:40:28.434Z,2.30
2018-11-13T12:42:56.824Z,2.50
2018-11-13T12:45:25.187Z,2.83
2018-11-13T12:47:53.464Z,2.03
2018-11-13T12:50:21.794Z,2.60
2018-11-13T12:52:50.113Z,2.10
2018-11-13T12:55:20.702Z,2.90
2018-11-13T12:57:49.028Z,2.93
2018-11-13T13:00:21.846Z,2.47
2018-11-13T13:02:50.346Z,2.50
2018-11-13T13:05:19.360Z,2.80
2018-11-13T13:07:47.677Z,2.50
2018-11-13T13:10:17.129Z,3.10
2018-11-13T13:12:45.465Z,2.67
2018-11-13T13:15:15.909Z,2.23
2018-11-13T13:17:45.533Z,2.40
2018-11-13T13:20:16.921Z,2.30
2018-11-13T13:22:46.891Z,2.57
2018-11-13T13:25:16.544Z,3.05
2018-11-13T13:27:45.949Z,2.30
2018-11-13T13:30:17.491Z,2.60
2018-11-13T13:32:46.627Z,3.23
2018-11-13T13:35:48.619Z,3.33
2018-11-13T13:38:17.001Z,2.50
2018-11-13T13:40:46.513Z,3.07
2018-11-13T13:43:15.866Z,2.80
2018-11-13T13:45:45.200Z,2.10
2018-11-13T13:48:13.521Z,2.70
2018-11-13T13:50:42.025Z,2.23
2018-11-13T13:53:11.977Z,2.27
2018-11-13T13:55:40.871Z,2.20
2018-11-13T13:58:09.352Z,3.47
2018-11-13T14:00:37.899Z,2.47
2018-11-13T14:03:07.825Z,2.40
2018-11-13T14:05:36.454Z,2.63
2018-11-13T14:08:05.405Z,2.57
2018-11-13T14:10:33.831Z,2.67
2018-11-13T14:13:02.116Z,3.30
2018-11-13T14:15:30.578Z,3.07
2018-11-13T14:17:58.993Z,3.60
2018-11-13T14:20:27.314Z,3.37
2018-11-13T14:22:55.634Z,2.83
2018-11-13T14:25:24.086Z,2.70
2018-11-13T14:27:52.489Z,3.43
2018-11-13T14:30:23.270Z,2.70
2018-11-13T14:32:52.265Z,2.57
2018-11-13T14:35:20.656Z,3.63
2018-11-13T14:37:49.040Z,2.73
2018-11-13T14:40:21.801Z,2.57
2018-11-13T14:42:50.318Z,2.47
2018-11-13T14:45:19.760Z,2.67
2018-11-13T14:47:48.861Z,3.37
2018-11-13T14:50:19.013Z,2.83
2018-11-13T14:52:50.468Z,3.00
2018-11-13T14:55:21.621Z,2.50
2018-11-13T14:57:50.181Z,2.63
2018-11-13T15:00:21.464Z,2.77
2018-11-13T15:02:50.266Z,2.58
2018-11-13T15:05:19.644Z,3.45
2018-11-13T15:07:49.372Z,3.30
2018-11-13T15:10:26.357Z,3.72
2018-11-13T15:12:55.022Z,3.37
2018-11-13T15:15:23.468Z,2.97
2018-11-13T15:17:51.735Z,3.50
2018-11-13T15:20:20.180Z,4.23
2018-11-13T15:22:48.510Z,4.10
2018-11-13T15:25:16.856Z,2.90
2018-11-13T15:27:45.684Z,3.30
2018-11-13T15:30:18.240Z,3.10
2018-11-13T15:32:49.423Z,3.17
2018-11-13T15:35:17.817Z,3.97
2018-11-13T15:37:46.666Z,2.60
2018-11-13T15:40:18.091Z,3.27
2018-11-13T15:42:46.492Z,2.90
2018-11-13T15:45:16.108Z,3.20
2018-11-13T15:47:45.397Z,3.17
2018-11-13T15:50:16.221Z,2.90
2018-11-13T15:52:45.050Z,2.97
2018-11-13T15:55:14.285Z,4.00
2018-11-13T15:57:43.805Z,2.93
2018-11-13T16:00:21.879Z,3.43
2018-11-13T16:02:50.300Z,3.40
2018-11-13T16:05:23.844Z,4.03
2018-11-13T16:07:53.692Z,2.90
2018-11-13T16:10:22.084Z,2.93
2018-11-13T16:12:50.556Z,3.17
2018-11-13T16:15:20.638Z,3.07
2018-11-13T16:17:49.633Z,3.40
2018-11-13T16:20:18.447Z,3.37
2018-11-13T16:22:46.901Z,3.43
2018-11-13T16:25:15.321Z,3.20
2018-11-13T16:27:43.816Z,3.67
2018-11-13T16:30:21.246Z,3.63
2018-11-13T16:32:50.320Z,2.83
2018-11-13T16:35:19.686Z,3.50
2018-11-13T16:37:48.706Z,3.77
2018-11-13T16:40:18.526Z,3.33
2018-11-13T16:42:46.926Z,3.47
2018-11-13T16:45:16.419Z,3.37
2018-11-13T16:47:44.987Z,3.40
2018-11-13T16:50:15.921Z,3.80
2018-11-13T16:52:44.708Z,3.62
2018-11-13T16:55:17.465Z,3.50
2018-11-13T16:57:46.211Z,3.30
2018-11-13T17:00:15.387Z,4.37
2018-11-13T17:02:43.877Z,4.03
2018-11-13T17:05:14.828Z,4.80
2018-11-13T17:07:43.552Z,3.83
2018-11-13T17:10:14.865Z,4.10
2018-11-13T17:12:43.448Z,4.20
2018-11-13T17:15:15.334Z,3.87
2018-11-13T17:17:44.508Z,4.93
2018-11-13T17:20:14.069Z,4.97
2018-11-13T17:22:43.191Z,4.70
2018-11-13T17:25:14.539Z,4.57
2018-11-13T17:27:44.782Z,4.10
2018-11-13T17:30:16.544Z,5.07
2018-11-13T17:32:45.630Z,4.73
2018-11-13T17:35:15.218Z,4.30
2018-11-13T17:37:44.328Z,4.07
2018-11-13T17:40:15.449Z,4.53
2018-11-13T17:42:44.376Z,4.83
2018-11-13T17:45:15.211Z,5.03
2018-11-13T17:47:44.389Z,4.30
2018-11-13T17:50:19.263Z,4.37
2018-11-13T17:52:48.422Z,4.33
2018-11-13T17:55:17.613Z,4.60
2018-11-13T17:57:48.964Z,5.10
2018-11-13T18:00:20.671Z,4.63
2018-11-13T18:02:49.489Z,3.80
2018-11-13T18:05:19.080Z,5.50
2018-11-13T18:07:47.890Z,4.77
2018-11-13T18:10:24.346Z,3.40
2018-11-13T18:12:52.700Z,4.33
2018-11-13T18:15:22.551Z,4.50
2018-11-13T18:17:51.161Z,4.23
2018-11-13T18:20:24.040Z,4.07
2018-11-13T18:22:52.617Z,4.27
2018-11-13T18:25:21.501Z,4.50
2018-11-13T18:27:51.426Z,5.73
2018-11-13T18:30:21.983Z,3.80
2018-11-13T18:32:51.060Z,6.13
2018-11-13T18:35:24.044Z,4.47
2018-11-13T18:37:53.346Z,4.90
2018-11-13T18:40:22.388Z,4.10
2018-11-13T18:42:52.303Z,4.20
2018-11-13T18:45:26.332Z,3.57
2018-11-13T18:47:54.819Z,4.57
2018-11-13T18:50:27.402Z,4.10
2018-11-13T18:52:55.852Z,4.70
2018-11-13T18:55:25.215Z,4.73
2018-11-13T18:57:53.676Z,4.13
2018-11-13T19:00:28.222Z,3.93
2018-11-13T19:02:57.197Z,4.40
2018-11-13T19:05:26.524Z,3.87
2018-11-13T19:07:55.106Z,4.20
2018-11-13T19:10:32.032Z,5.03
2018-11-13T19:13:02.037Z,5.33
2018-11-13T19:15:31.921Z,4.77
2018-11-13T19:18:01.107Z,4.53
2018-11-13T19:20:29.792Z,4.40
2018-11-13T19:22:59.353Z,4.30
2018-11-13T19:25:29.530Z,4.47
2018-11-13T19:27:58.909Z,4.47
2018-11-13T19:30:27.511Z,4.50
2018-11-13T19:32:56.001Z,5.43
2018-11-13T19:35:24.944Z,4.90
2018-11-13T19:37:54.037Z,4.80
2018-11-13T19:40:25.004Z,4.90
2018-11-13T19:42:54.647Z,5.70
2018-11-13T19:45:23.331Z,4.50
2018-11-13T19:47:52.618Z,5.30
2018-11-13T19:50:25.761Z,4.80
2018-11-13T19:52:54.186Z,4.80
2018-11-13T19:55:23.253Z,4.30
2018-11-13T19:57:51.821Z,4.97
2018-11-13T20:00:23.740Z,5.23
2018-11-13T20:02:53.359Z,4.63
2018-11-13T20:05:22.482Z,5.23
2018-11-13T20:07:50.935Z,5.23
2018-11-13T20:10:20.590Z,4.87
2018-11-13T20:12:50.872Z,4.90
2018-11-13T20:15:19.942Z,5.10
2018-11-13T20:17:48.557Z,5.70
2018-11-13T20:20:22.202Z,5.37
2018-11-13T20:22:51.454Z,5.40
2018-11-13T20:25:24.905Z,6.07
2018-11-13T20:27:53.506Z,5.73
2018-11-13T20:30:23.341Z,6.43
2018-11-13T20:32:51.762Z,6.60
2018-11-13T20:35:20.695Z,6.80
2018-11-13T20:37:51.593Z,6.23
2018-11-13T20:40:23.968Z,6.70
2018-11-13T20:42:54.533Z,6.23
2018-11-13T20:45:23.205Z,6.10
2018-11-13T20:47:52.278Z,5.33
2018-11-13T20:50:23.063Z,5.90
2018-11-13T20:52:51.572Z,5.17
2018-11-13T20:55:20.907Z,5.00
2018-11-13T20:57:49.508Z,4.67
2018-11-13T21:00:20.372Z,5.10
2018-11-13T21:02:48.997Z,5.30
2018-11-13T21:05:17.434Z,6.10
2018-11-13T21:07:48.962Z,4.97
2018-11-13T21:10:20.378Z,5.93
2018-11-13T21:12:50.709Z,5.77
2018-11-13T21:15:20.195Z,5.30
2018-11-13T21:17:48.879Z,5.67
2018-11-13T21:20:18.543Z,6.10
2018-11-13T21:22:47.016Z,6.30
2018-11-13T21:25:19.374Z,6.37
2018-11-13T21:27:47.690Z,6.97
2018-11-13T21:30:19.911Z,6.30
2018-11-13T21:32:49.324Z,7.43
2018-11-13T21:35:18.004Z,6.37
2018-11-13T21:37:47.736Z,6.40
2018-11-13T21:40:18.108Z,6.00
2018-11-13T21:42:47.439Z,6.93
2018-11-13T21:45:16.622Z,6.40
2018-11-13T21:47:45.092Z,6.73
2018-11-13T21:50:16.526Z,6.33
2018-11-13T21:52:44.894Z,6.03
2018-11-13T21:55:15.663Z,6.50
2018-11-13T21:57:44.317Z,6.60
2018-11-13T22:00:15.988Z,6.37
2018-11-13T22:02:46.849Z,6.83
2018-11-13T22:05:15.261Z,6.63
2018-11-13T22:07:43.816Z,6.27
2018-11-13T22:10:12.426Z,6.53
2018-11-13T22:12:41.552Z,6.33
2018-11-13T22:15:13.271Z,6.63
2018-11-13T22:17:41.824Z,7.60
2018-11-13T22:20:14.438Z,6.93
2018-11-13T22:22:43.095Z,7.23
2018-11-13T22:25:15.661Z,7.10
2018-11-13T22:27:45.475Z,7.03
2018-11-13T22:30:15.153Z,7.07
2018-11-13T22:32:44.235Z,6.80
2018-11-13T22:35:14.138Z,6.83
2018-11-13T22:37:42.811Z,6.57
2018-11-13T22:40:14.291Z,6.60
2018-11-13T22:42:43.641Z,7.23
2018-11-13T22:45:14.328Z,6.43
2018-11-13T22:47:42.965Z,7.50
2018-11-13T22:50:14.704Z,7.77
2018-11-13T22:52:43.709Z,7.40
2018-11-13T22:55:13.713Z,7.97
2018-11-13T22:57:43.997Z,7.10
2018-11-13T23:00:18.314Z,7.97
2018-11-13T23:02:47.709Z,8.80
2018-11-13T23:05:16.760Z,7.67
2018-11-13T23:07:45.393Z,8.10
2018-11-13T23:10:14.932Z,7.87
2018-11-13T23:12:44.764Z,7.83
2018-11-13T23:15:14.957Z,7.73
2018-11-13T23:26:59.636Z,7.60
2018-11-13T23:29:29.171Z,8.90
2018-11-13T23:31:58.824Z,8.27
2018-11-13T23:34:27.193Z,8.33
2018-11-13T23:36:55.641Z,8.17
2018-11-13T23:39:24.059Z,8.20
2018-11-13T23:41:53.299Z,9.20
2018-11-13T23:44:21.677Z,7.33
2018-11-13T23:46:54.826Z,7.53
2018-11-13T23:49:23.438Z,8.37
2018-11-13T23:51:51.899Z,6.77
2018-11-13T23:54:20.511Z,8.13
2018-11-13T23:56:49.012Z,7.73
2018-11-13T23:59:17.386Z,7.63
